sensor_id;sensor_type;location;lat;lon;timestamp;P1;durP1;ratioP1;P2;durP2;ratioP2
22332;SDS011;11334;36.986;-121.936;2023-03-29T00:01:21;3.42;;;1.10;;
22332;SDS011;11334;36.986;-121.936;2023-03-29T00:03:49;2.08;;;1.40;;
22332;SDS011;11334;36.986;-121.936;2023-03-29T00:06:16;3.33;;;1.20;;
22332;SDS011;11334;36.986;-121.936;2023-03-29T00:08:46;3.72;;;1.83;;
22332;SDS011;11334;36.986;-121.936;2023-03-29T00:11:18;3.45;;;1.50;;
22332;SDS011;11334;36.986;-121.936;2023-03-29T00:13:47;4.05;;;1.58;;
22332;SDS011;11334;36.986;-121.936;2023-03-29T00:16:14;3.60;;;2.05;;
22332;SDS011;11334;36.986;-121.936;2023-03-29T00:18:40;4.53;;;2.08;;
22332;SDS011;11334;36.986;-121.936;2023-03-29T00:21:07;5.20;;;1.63;;
22332;SDS011;11334;36.986;-121.936;2023-03-29T00:23:33;2.95;;;1.90;;
22332;SDS011;11334;36.986;-121.936;2023-03-29T00:25:59;2.40;;;1.60;;
22332;SDS011;11334;36.986;-121.936;2023-03-29T00:28:26;5.93;;;2.30;;
22332;SDS011;11334;36.986;-121.936;2023-03-29T00:30:52;4.18;;;1.80;;
22332;SDS011;11334;36.986;-121.936;2023-03-29T00:33:19;3.90;;;1.60;;
22332;SDS011;11334;36.986;-121.936;2023-03-29T00:35:46;3.35;;;2.08;;
22332;SDS011;11334;36.986;-121.936;2023-03-29T00:38:13;3.85;;;1.70;;
22332;SDS011;11334;36.986;-121.936;2023-03-29T00:40:43;3.97;;;1.95;;
22332;SDS011;11334;36.986;-121.936;2023-03-29T00:43:14;3.10;;;1.35;;
22332;SDS011;11334;36.986;-121.936;2023-03-29T00:45:41;2.08;;;1.50;;
22332;SDS011;11334;36.986;-121.936;2023-03-29T00:48:11;3.15;;;1.73;;
22332;SDS011;11334;36.986;-121.936;2023-03-29T00:50:42;2.25;;;1.50;;
22332;SDS011;11334;36.986;-121.936;2023-03-29T00:56:05;2.03;;;1.70;;
22332;SDS011;11334;36.986;-121.936;2023-03-29T00:59:01;2.55;;;1.45;;
22332;SDS011;11334;36.986;-121.936;2023-03-29T01:01:38;3.15;;;1.33;;
22332;SDS011;11334;36.986;-121.936;2023-03-29T01:04:25;2.28;;;1.73;;
22332;SDS011;11334;36.986;-121.936;2023-03-29T01:09:34;2.40;;;1.75;;
22332;SDS011;11334;36.986;-121.936;2023-03-29T01:12:07;2.85;;;1.65;;
22332;SDS011;11334;36.986;-121.936;2023-03-29T01:14:39;2.22;;;1.70;;
22332;SDS011;11334;36.986;-121.936;2023-03-29T01:17:10;5.13;;;1.80;;
22332;SDS011;11334;36.986;-121.936;2023-03-29T01:19:39;2.42;;;1.90;;
22332;SDS011;11334;36.986;-121.936;2023-03-29T01:24:56;3.97;;;3.00;;
22332;SDS011;11334;36.986;-121.936;2023-03-29T01:27:48;2.92;;;2.45;;
22332;SDS011;11334;36.986;-121.936;2023-03-29T01:30:25;4.13;;;2.65;;
22332;SDS011;11334;36.986;-121.936;2023-03-29T01:32:58;4.50;;;3.10;;
22332;SDS011;11334;36.986;-121.936;2023-03-29T01:35:51;2.67;;;2.13;;
22332;SDS011;11334;36.986;-121.936;2023-03-29T01:41:15;3.85;;;2.63;;
22332;SDS011;11334;36.986;-121.936;2023-03-29T01:49:06;6.03;;;3.17;;
22332;SDS011;11334;36.986;-121.936;2023-03-29T01:51:48;4.03;;;2.65;;
22332;SDS011;11334;36.986;-121.936;2023-03-29T01:54:38;3.78;;;2.30;;
22332;SDS011;11334;36.986;-121.936;2023-03-29T01:57:12;3.97;;;1.58;;
22332;SDS011;11334;36.986;-121.936;2023-03-29T01:59:40;2.88;;;1.83;;
22332;SDS011;11334;36.986;-121.936;2023-03-29T02:02:10;2.08;;;1.80;;
22332;SDS011;11334;36.986;-121.936;2023-03-29T02:04:45;2.45;;;1.50;;
22332;SDS011;11334;36.986;-121.936;2023-03-29T02:07:16;1.63;;;1.52;;
22332;SDS011;11334;36.986;-121.936;2023-03-29T02:09:45;3.30;;;2.17;;
22332;SDS011;11334;36.986;-121.936;2023-03-29T02:12:16;2.47;;;1.83;;
22332;SDS011;11334;36.986;-121.936;2023-03-29T02:14:43;2.22;;;2.00;;
22332;SDS011;11334;36.986;-121.936;2023-03-29T02:19:45;2.53;;;1.90;;
22332;SDS011;11334;36.986;-121.936;2023-03-29T02:22:21;3.00;;;1.73;;
22332;SDS011;11334;36.986;-121.936;2023-03-29T02:24:53;1.92;;;1.45;;
22332;SDS011;11334;36.986;-121.936;2023-03-29T02:27:24;3.63;;;2.45;;
22332;SDS011;11334;36.986;-121.936;2023-03-29T02:29:52;3.88;;;2.90;;
22332;SDS011;11334;36.986;-121.936;2023-03-29T02:32:20;3.58;;;2.70;;
22332;SDS011;11334;36.986;-121.936;2023-03-29T02:35:06;4.07;;;2.33;;
22332;SDS011;11334;36.986;-121.936;2023-03-29T02:37:37;5.20;;;2.92;;
22332;SDS011;11334;36.986;-121.936;2023-03-29T02:40:08;2.45;;;2.17;;
22332;SDS011;11334;36.986;-121.936;2023-03-29T02:42:40;4.80;;;3.17;;
22332;SDS011;11334;36.986;-121.936;2023-03-29T02:45:11;4.78;;;2.92;;
22332;SDS011;11334;36.986;-121.936;2023-03-29T02:47:52;2.70;;;2.50;;
22332;SDS011;11334;36.986;-121.936;2023-03-29T02:50:22;3.13;;;2.50;;
22332;SDS011;11334;36.986;-121.936;2023-03-29T02:53:04;3.10;;;2.75;;
22332;SDS011;11334;36.986;-121.936;2023-03-29T02:55:42;3.00;;;2.78;;
22332;SDS011;11334;36.986;-121.936;2023-03-29T02:58:10;2.60;;;2.10;;
22332;SDS011;11334;36.986;-121.936;2023-03-29T03:00:39;1.83;;;1.73;;
22332;SDS011;11334;36.986;-121.936;2023-03-29T03:03:10;2.80;;;1.65;;
22332;SDS011;11334;36.986;-121.936;2023-03-29T03:05:37;3.38;;;2.03;;
22332;SDS011;11334;36.986;-121.936;2023-03-29T03:08:04;3.33;;;2.08;;
22332;SDS011;11334;36.986;-121.936;2023-03-29T03:10:32;6.03;;;2.15;;
22332;SDS011;11334;36.986;-121.936;2023-03-29T03:12:59;3.35;;;2.47;;
22332;SDS011;11334;36.986;-121.936;2023-03-29T03:15:26;4.88;;;2.30;;
22332;SDS011;11334;36.986;-121.936;2023-03-29T03:17:52;4.05;;;2.22;;
22332;SDS011;11334;36.986;-121.936;2023-03-29T03:20:19;3.85;;;2.60;;
22332;SDS011;11334;36.986;-121.936;2023-03-29T03:22:48;3.85;;;2.63;;
22332;SDS011;11334;36.986;-121.936;2023-03-29T03:25:15;4.57;;;2.80;;
22332;SDS011;11334;36.986;-121.936;2023-03-29T03:27:43;4.57;;;2.92;;
22332;SDS011;11334;36.986;-121.936;2023-03-29T03:30:11;2.88;;;2.05;;
22332;SDS011;11334;36.986;-121.936;2023-03-29T03:32:38;2.60;;;2.35;;
22332;SDS011;11334;36.986;-121.936;2023-03-29T03:35:05;6.85;;;3.28;;
22332;SDS011;11334;36.986;-121.936;2023-03-29T03:37:32;3.60;;;3.10;;
22332;SDS011;11334;36.986;-121.936;2023-03-29T03:39:58;5.18;;;3.38;;
22332;SDS011;11334;36.986;-121.936;2023-03-29T03:42:28;4.85;;;3.47;;
22332;SDS011;11334;36.986;-121.936;2023-03-29T03:44:54;3.95;;;3.15;;
22332;SDS011;11334;36.986;-121.936;2023-03-29T03:47:20;4.95;;;3.78;;
22332;SDS011;11334;36.986;-121.936;2023-03-29T03:49:47;5.18;;;3.80;;
22332;SDS011;11334;36.986;-121.936;2023-03-29T03:52:13;4.32;;;3.05;;
22332;SDS011;11334;36.986;-121.936;2023-03-29T03:54:39;3.72;;;2.92;;
22332;SDS011;11334;36.986;-121.936;2023-03-29T03:57:06;2.78;;;2.30;;
22332;SDS011;11334;36.986;-121.936;2023-03-29T03:59:32;3.83;;;2.47;;
22332;SDS011;11334;36.986;-121.936;2023-03-29T04:01:58;6.10;;;2.58;;
22332;SDS011;11334;36.986;-121.936;2023-03-29T04:04:25;5.43;;;2.45;;
22332;SDS011;11334;36.986;-121.936;2023-03-29T04:06:52;2.92;;;2.70;;
22332;SDS011;11334;36.986;-121.936;2023-03-29T04:09:18;3.53;;;2.65;;
22332;SDS011;11334;36.986;-121.936;2023-03-29T04:11:44;4.30;;;2.45;;
22332;SDS011;11334;36.986;-121.936;2023-03-29T04:14:11;4.40;;;2.80;;
22332;SDS011;11334;36.986;-121.936;2023-03-29T04:16:37;5.47;;;5.05;;
22332;SDS011;11334;36.986;-121.936;2023-03-29T04:19:03;3.00;;;2.80;;
22332;SDS011;11334;36.986;-121.936;2023-03-29T04:21:29;7.68;;;3.38;;
22332;SDS011;11334;36.986;-121.936;2023-03-29T04:23:58;5.10;;;3.28;;
22332;SDS011;11334;36.986;-121.936;2023-03-29T04:26:24;6.15;;;3.17;;
22332;SDS011;11334;36.986;-121.936;2023-03-29T04:28:51;5.90;;;2.67;;
22332;SDS011;11334;36.986;-121.936;2023-03-29T04:31:17;5.10;;;2.38;;
22332;SDS011;11334;36.986;-121.936;2023-03-29T04:33:46;2.95;;;2.50;;
22332;SDS011;11334;36.986;-121.936;2023-03-29T04:36:13;4.07;;;3.05;;
22332;SDS011;11334;36.986;-121.936;2023-03-29T04:38:40;4.72;;;3.33;;
22332;SDS011;11334;36.986;-121.936;2023-03-29T04:41:07;6.65;;;3.42;;
22332;SDS011;11334;36.986;-121.936;2023-03-29T04:43:34;4.65;;;2.65;;
22332;SDS011;11334;36.986;-121.936;2023-03-29T04:46:00;9.45;;;2.97;;
22332;SDS011;11334;36.986;-121.936;2023-03-29T04:48:27;4.78;;;2.88;;
22332;SDS011;11334;36.986;-121.936;2023-03-29T04:50:55;4.40;;;3.08;;
22332;SDS011;11334;36.986;-121.936;2023-03-29T04:53:22;7.13;;;3.00;;
22332;SDS011;11334;36.986;-121.936;2023-03-29T04:55:48;6.50;;;2.78;;
22332;SDS011;11334;36.986;-121.936;2023-03-29T04:58:14;8.40;;;3.10;;
22332;SDS011;11334;36.986;-121.936;2023-03-29T05:00:44;4.22;;;3.05;;
22332;SDS011;11334;36.986;-121.936;2023-03-29T05:03:10;4.35;;;3.03;;
22332;SDS011;11334;36.986;-121.936;2023-03-29T05:05:39;5.95;;;2.88;;
22332;SDS011;11334;36.986;-121.936;2023-03-29T05:08:06;2.35;;;2.08;;
22332;SDS011;11334;36.986;-121.936;2023-03-29T05:10:34;5.55;;;2.83;;
22332;SDS011;11334;36.986;-121.936;2023-03-29T05:13:00;4.20;;;2.63;;
22332;SDS011;11334;36.986;-121.936;2023-03-29T05:15:28;4.32;;;2.17;;
22332;SDS011;11334;36.986;-121.936;2023-03-29T05:17:55;4.00;;;2.58;;
22332;SDS011;11334;36.986;-121.936;2023-03-29T05:20:23;7.18;;;3.10;;
22332;SDS011;11334;36.986;-121.936;2023-03-29T05:22:49;10.90;;;3.50;;
22332;SDS011;11334;36.986;-121.936;2023-03-29T05:25:15;7.95;;;3.55;;
22332;SDS011;11334;36.986;-121.936;2023-03-29T05:27:43;7.32;;;4.05;;
22332;SDS011;11334;36.986;-121.936;2023-03-29T05:30:10;9.40;;;4.05;;
22332;SDS011;11334;36.986;-121.936;2023-03-29T05:32:40;9.05;;;4.10;;
22332;SDS011;11334;36.986;-121.936;2023-03-29T05:35:07;5.85;;;3.35;;
22332;SDS011;11334;36.986;-121.936;2023-03-29T05:37:35;8.07;;;3.17;;
22332;SDS011;11334;36.986;-121.936;2023-03-29T05:40:03;5.60;;;3.15;;
22332;SDS011;11334;36.986;-121.936;2023-03-29T05:42:32;7.13;;;2.75;;
22332;SDS011;11334;36.986;-121.936;2023-03-29T05:44:59;7.38;;;2.78;;
22332;SDS011;11334;36.986;-121.936;2023-03-29T05:47:25;6.65;;;2.72;;
22332;SDS011;11334;36.986;-121.936;2023-03-29T05:49:52;5.05;;;2.65;;
22332;SDS011;11334;36.986;-121.936;2023-03-29T05:52:18;5.18;;;2.72;;
22332;SDS011;11334;36.986;-121.936;2023-03-29T05:54:44;6.25;;;3.00;;
22332;SDS011;11334;36.986;-121.936;2023-03-29T05:57:11;8.05;;;2.50;;
22332;SDS011;11334;36.986;-121.936;2023-03-29T05:59:37;5.35;;;2.45;;
22332;SDS011;11334;36.986;-121.936;2023-03-29T06:02:03;4.32;;;2.20;;
22332;SDS011;11334;36.986;-121.936;2023-03-29T06:04:30;4.60;;;2.20;;
22332;SDS011;11334;36.986;-121.936;2023-03-29T06:06:57;6.65;;;2.25;;
22332;SDS011;11334;36.986;-121.936;2023-03-29T06:09:26;5.57;;;2.53;;
22332;SDS011;11334;36.986;-121.936;2023-03-29T06:11:52;5.43;;;2.38;;
22332;SDS011;11334;36.986;-121.936;2023-03-29T06:14:20;2.45;;;2.00;;
22332;SDS011;11334;36.986;-121.936;2023-03-29T06:16:48;5.40;;;2.22;;
22332;SDS011;11334;36.986;-121.936;2023-03-29T06:19:15;5.88;;;2.10;;
22332;SDS011;11334;36.986;-121.936;2023-03-29T06:21:42;4.40;;;2.35;;
22332;SDS011;11334;36.986;-121.936;2023-03-29T06:24:09;5.75;;;2.50;;
22332;SDS011;11334;36.986;-121.936;2023-03-29T06:26:35;6.78;;;2.28;;
22332;SDS011;11334;36.986;-121.936;2023-03-29T06:29:01;3.47;;;2.25;;
22332;SDS011;11334;36.986;-121.936;2023-03-29T06:31:28;3.60;;;1.73;;
22332;SDS011;11334;36.986;-121.936;2023-03-29T06:33:55;4.47;;;1.70;;
22332;SDS011;11334;36.986;-121.936;2023-03-29T06:36:22;3.45;;;1.70;;
22332;SDS011;11334;36.986;-121.936;2023-03-29T06:38:48;7.35;;;2.30;;
22332;SDS011;11334;36.986;-121.936;2023-03-29T06:41:15;4.28;;;1.90;;
22332;SDS011;11334;36.986;-121.936;2023-03-29T06:43:41;4.72;;;2.15;;
22332;SDS011;11334;36.986;-121.936;2023-03-29T06:46:07;1.63;;;1.50;;
22332;SDS011;11334;36.986;-121.936;2023-03-29T06:48:36;5.38;;;2.13;;
22332;SDS011;11334;36.986;-121.936;2023-03-29T06:51:04;2.42;;;1.80;;
22332;SDS011;11334;36.986;-121.936;2023-03-29T06:53:32;6.45;;;1.60;;
22332;SDS011;11334;36.986;-121.936;2023-03-29T06:55:58;7.03;;;1.55;;
22332;SDS011;11334;36.986;-121.936;2023-03-29T06:58:29;3.38;;;1.70;;
22332;SDS011;11334;36.986;-121.936;2023-03-29T07:00:58;4.25;;;1.73;;
22332;SDS011;11334;36.986;-121.936;2023-03-29T07:03:26;3.50;;;1.42;;
22332;SDS011;11334;36.986;-121.936;2023-03-29T07:05:53;2.95;;;1.50;;
22332;SDS011;11334;36.986;-121.936;2023-03-29T07:08:26;4.40;;;1.77;;
22332;SDS011;11334;36.986;-121.936;2023-03-29T07:10:56;2.38;;;1.50;;
22332;SDS011;11334;36.986;-121.936;2023-03-29T07:13:23;5.78;;;1.80;;
22332;SDS011;11334;36.986;-121.936;2023-03-29T07:15:50;9.27;;;1.88;;
22332;SDS011;11334;36.986;-121.936;2023-03-29T07:18:16;4.55;;;1.63;;
22332;SDS011;11334;36.986;-121.936;2023-03-29T07:20:43;4.18;;;1.73;;
22332;SDS011;11334;36.986;-121.936;2023-03-29T07:23:09;3.20;;;1.73;;
22332;SDS011;11334;36.986;-121.936;2023-03-29T07:25:36;2.80;;;1.35;;
22332;SDS011;11334;36.986;-121.936;2023-03-29T07:28:03;2.22;;;1.65;;
22332;SDS011;11334;36.986;-121.936;2023-03-29T07:30:30;6.35;;;2.08;;
22332;SDS011;11334;36.986;-121.936;2023-03-29T07:32:57;2.50;;;1.42;;
22332;SDS011;11334;36.986;-121.936;2023-03-29T07:35:24;3.70;;;1.52;;
22332;SDS011;11334;36.986;-121.936;2023-03-29T07:37:51;6.35;;;2.05;;
22332;SDS011;11334;36.986;-121.936;2023-03-29T07:40:19;6.68;;;2.13;;
22332;SDS011;11334;36.986;-121.936;2023-03-29T07:42:49;6.65;;;2.10;;
22332;SDS011;11334;36.986;-121.936;2023-03-29T07:45:17;5.72;;;1.90;;
22332;SDS011;11334;36.986;-121.936;2023-03-29T07:47:45;5.80;;;2.00;;
22332;SDS011;11334;36.986;-121.936;2023-03-29T07:50:13;6.32;;;2.38;;
22332;SDS011;11334;36.986;-121.936;2023-03-29T07:52:41;10.20;;;2.55;;
22332;SDS011;11334;36.986;-121.936;2023-03-29T07:55:10;6.28;;;2.83;;
22332;SDS011;11334;36.986;-121.936;2023-03-29T07:57:37;6.63;;;2.15;;
22332;SDS011;11334;36.986;-121.936;2023-03-29T08:00:04;6.43;;;2.38;;
22332;SDS011;11334;36.986;-121.936;2023-03-29T08:02:41;11.52;;;2.22;;
22332;SDS011;11334;36.986;-121.936;2023-03-29T08:05:09;6.78;;;2.60;;
22332;SDS011;11334;36.986;-121.936;2023-03-29T08:07:37;10.95;;;1.88;;
22332;SDS011;11334;36.986;-121.936;2023-03-29T08:10:08;6.60;;;2.30;;
22332;SDS011;11334;36.986;-121.936;2023-03-29T08:12:38;9.05;;;2.42;;
22332;SDS011;11334;36.986;-121.936;2023-03-29T08:15:05;5.78;;;2.10;;
22332;SDS011;11334;36.986;-121.936;2023-03-29T08:17:31;5.65;;;2.30;;
22332;SDS011;11334;36.986;-121.936;2023-03-29T08:19:59;7.47;;;2.58;;
22332;SDS011;11334;36.986;-121.936;2023-03-29T08:22:25;7.95;;;2.22;;
22332;SDS011;11334;36.986;-121.936;2023-03-29T08:24:52;3.15;;;1.40;;
22332;SDS011;11334;36.986;-121.936;2023-03-29T08:27:19;2.78;;;1.92;;
22332;SDS011;11334;36.986;-121.936;2023-03-29T08:29:46;6.40;;;2.33;;
22332;SDS011;11334;36.986;-121.936;2023-03-29T08:32:12;10.85;;;1.60;;
22332;SDS011;11334;36.986;-121.936;2023-03-29T08:34:39;8.88;;;1.90;;
22332;SDS011;11334;36.986;-121.936;2023-03-29T08:37:06;2.90;;;1.52;;
22332;SDS011;11334;36.986;-121.936;2023-03-29T08:39:34;4.22;;;1.45;;
22332;SDS011;11334;36.986;-121.936;2023-03-29T08:50:10;10.52;;;2.65;;
22332;SDS011;11334;36.986;-121.936;2023-03-29T08:55:23;12.60;;;2.17;;
22332;SDS011;11334;36.986;-121.936;2023-03-29T08:57:56;6.60;;;1.92;;
22332;SDS011;11334;36.986;-121.936;2023-03-29T09:03:23;8.88;;;2.60;;
22332;SDS011;11334;36.986;-121.936;2023-03-29T09:06:02;8.07;;;2.38;;
22332;SDS011;11334;36.986;-121.936;2023-03-29T09:08:31;14.25;;;3.15;;
22332;SDS011;11334;36.986;-121.936;2023-03-29T09:28:05;8.00;;;2.10;;
22332;SDS011;11334;36.986;-121.936;2023-03-29T09:30:39;7.47;;;1.95;;
22332;SDS011;11334;36.986;-121.936;2023-03-29T09:33:15;9.25;;;2.00;;
22332;SDS011;11334;36.986;-121.936;2023-03-29T09:35:56;9.13;;;2.20;;
22332;SDS011;11334;36.986;-121.936;2023-03-29T09:38:36;9.15;;;2.20;;
22332;SDS011;11334;36.986;-121.936;2023-03-29T09:41:18;9.70;;;1.90;;
22332;SDS011;11334;36.986;-121.936;2023-03-29T09:43:49;13.18;;;1.85;;
22332;SDS011;11334;36.986;-121.936;2023-03-29T09:46:32;7.05;;;2.00;;
22332;SDS011;11334;36.986;-121.936;2023-03-29T09:49:03;6.70;;;1.88;;
22332;SDS011;11334;36.986;-121.936;2023-03-29T09:51:31;7.07;;;1.70;;
22332;SDS011;11334;36.986;-121.936;2023-03-29T09:53:58;4.90;;;1.60;;
22332;SDS011;11334;36.986;-121.936;2023-03-29T09:56:25;7.57;;;2.30;;
22332;SDS011;11334;36.986;-121.936;2023-03-29T09:58:53;5.28;;;2.10;;
22332;SDS011;11334;36.986;-121.936;2023-03-29T10:01:20;5.15;;;2.08;;
22332;SDS011;11334;36.986;-121.936;2023-03-29T10:03:47;7.70;;;1.98;;
22332;SDS011;11334;36.986;-121.936;2023-03-29T10:06:15;7.53;;;1.85;;
22332;SDS011;11334;36.986;-121.936;2023-03-29T10:08:50;8.05;;;1.60;;
22332;SDS011;11334;36.986;-121.936;2023-03-29T10:11:30;13.00;;;2.00;;
22332;SDS011;11334;36.986;-121.936;2023-03-29T10:14:02;5.97;;;1.75;;
22332;SDS011;11334;36.986;-121.936;2023-03-29T10:16:38;6.40;;;1.52;;
22332;SDS011;11334;36.986;-121.936;2023-03-29T10:19:16;5.03;;;1.58;;
22332;SDS011;11334;36.986;-121.936;2023-03-29T10:21:48;3.30;;;1.17;;
22332;SDS011;11334;36.986;-121.936;2023-03-29T10:24:19;9.98;;;2.08;;
22332;SDS011;11334;36.986;-121.936;2023-03-29T10:26:47;6.50;;;1.75;;
22332;SDS011;11334;36.986;-121.936;2023-03-29T10:29:36;12.23;;;1.83;;
22332;SDS011;11334;36.986;-121.936;2023-03-29T10:32:21;5.78;;;1.60;;
22332;SDS011;11334;36.986;-121.936;2023-03-29T10:34:58;3.95;;;1.60;;
22332;SDS011;11334;36.986;-121.936;2023-03-29T10:37:48;9.80;;;1.70;;
22332;SDS011;11334;36.986;-121.936;2023-03-29T10:40:40;8.20;;;1.90;;
22332;SDS011;11334;36.986;-121.936;2023-03-29T10:43:21;6.90;;;1.80;;
22332;SDS011;11334;36.986;-121.936;2023-03-29T10:45:54;6.50;;;2.03;;
22332;SDS011;11334;36.986;-121.936;2023-03-29T10:48:30;7.45;;;2.42;;
22332;SDS011;11334;36.986;-121.936;2023-03-29T10:50:59;8.75;;;2.22;;
22332;SDS011;11334;36.986;-121.936;2023-03-29T10:53:28;8.57;;;2.40;;
22332;SDS011;11334;36.986;-121.936;2023-03-29T10:59:04;6.35;;;2.10;;
22332;SDS011;11334;36.986;-121.936;2023-03-29T11:01:37;6.63;;;1.70;;
22332;SDS011;11334;36.986;-121.936;2023-03-29T11:04:32;7.47;;;1.88;;
22332;SDS011;11334;36.986;-121.936;2023-03-29T11:26:31;5.45;;;1.75;;
22332;SDS011;11334;36.986;-121.936;2023-03-29T11:29:04;9.15;;;2.05;;
22332;SDS011;11334;36.986;-121.936;2023-03-29T11:37:17;6.38;;;1.83;;
22332;SDS011;11334;36.986;-121.936;2023-03-29T11:42:40;6.40;;;2.20;;
22332;SDS011;11334;36.986;-121.936;2023-03-29T11:45:13;5.68;;;1.67;;
22332;SDS011;11334;36.986;-121.936;2023-03-29T11:47:47;10.13;;;2.33;;
22332;SDS011;11334;36.986;-121.936;2023-03-29T11:50:40;9.95;;;2.40;;
22332;SDS011;11334;36.986;-121.936;2023-03-29T11:53:12;10.20;;;2.63;;
22332;SDS011;11334;36.986;-121.936;2023-03-29T11:56:11;9.15;;;2.75;;
22332;SDS011;11334;36.986;-121.936;2023-03-29T11:58:49;5.82;;;1.90;;
22332;SDS011;11334;36.986;-121.936;2023-03-29T12:02:07;11.63;;;2.60;;
22332;SDS011;11334;36.986;-121.936;2023-03-29T12:04:17;10.43;;;2.30;;
22332;SDS011;11334;36.986;-121.936;2023-03-29T12:06:51;8.55;;;2.42;;
22332;SDS011;11334;36.986;-121.936;2023-03-29T12:09:24;13.18;;;3.40;;
22332;SDS011;11334;36.986;-121.936;2023-03-29T12:17:31;12.68;;;2.88;;
22332;SDS011;11334;36.986;-121.936;2023-03-29T12:22:55;15.13;;;3.38;;
22332;SDS011;11334;36.986;-121.936;2023-03-29T12:37:41;18.48;;;4.10;;
22332;SDS011;11334;36.986;-121.936;2023-03-29T12:40:15;18.67;;;3.58;;
22332;SDS011;11334;36.986;-121.936;2023-03-29T12:45:15;15.77;;;3.38;;
22332;SDS011;11334;36.986;-121.936;2023-03-29T12:47:53;18.70;;;3.70;;
22332;SDS011;11334;36.986;-121.936;2023-03-29T12:50:24;16.30;;;3.33;;
22332;SDS011;11334;36.986;-121.936;2023-03-29T12:53:04;13.20;;;3.38;;
22332;SDS011;11334;36.986;-121.936;2023-03-29T12:58:20;16.45;;;3.53;;
22332;SDS011;11334;36.986;-121.936;2023-03-29T13:01:34;24.88;;;5.47;;
22332;SDS011;11334;36.986;-121.936;2023-03-29T13:09:19;20.67;;;4.40;;
22332;SDS011;11334;36.986;-121.936;2023-03-29T13:14:32;12.43;;;3.72;;
22332;SDS011;11334;36.986;-121.936;2023-03-29T13:17:02;14.73;;;3.67;;
22332;SDS011;11334;36.986;-121.936;2023-03-29T13:25:08;16.20;;;4.13;;
22332;SDS011;11334;36.986;-121.936;2023-03-29T13:28:03;19.13;;;4.68;;
22332;SDS011;11334;36.986;-121.936;2023-03-29T13:30:58;20.15;;;5.15;;
22332;SDS011;11334;36.986;-121.936;2023-03-29T13:39:23;15.50;;;3.63;;
22332;SDS011;11334;36.986;-121.936;2023-03-29T13:42:05;19.95;;;4.38;;
22332;SDS011;11334;36.986;-121.936;2023-03-29T13:44:42;7.50;;;2.15;;
22332;SDS011;11334;36.986;-121.936;2023-03-29T13:49:46;11.25;;;3.10;;
22332;SDS011;11334;36.986;-121.936;2023-03-29T13:52:19;14.73;;;3.63;;
22332;SDS011;11334;36.986;-121.936;2023-03-29T13:54:53;11.18;;;3.22;;
22332;SDS011;11334;36.986;-121.936;2023-03-29T13:57:59;13.65;;;3.05;;
22332;SDS011;11334;36.986;-121.936;2023-03-29T14:00:33;11.35;;;3.10;;
22332;SDS011;11334;36.986;-121.936;2023-03-29T14:03:24;7.55;;;2.58;;
22332;SDS011;11334;36.986;-121.936;2023-03-29T14:06:00;18.35;;;3.50;;
22332;SDS011;11334;36.986;-121.936;2023-03-29T14:08:38;14.05;;;3.00;;
22332;SDS011;11334;36.986;-121.936;2023-03-29T14:11:06;17.15;;;3.33;;
22332;SDS011;11334;36.986;-121.936;2023-03-29T14:13:45;17.23;;;3.13;;
22332;SDS011;11334;36.986;-121.936;2023-03-29T14:16:12;26.02;;;3.75;;
22332;SDS011;11334;36.986;-121.936;2023-03-29T14:18:39;10.60;;;3.60;;
22332;SDS011;11334;36.986;-121.936;2023-03-29T14:21:06;16.60;;;3.50;;
22332;SDS011;11334;36.986;-121.936;2023-03-29T14:23:36;14.82;;;3.20;;
22332;SDS011;11334;36.986;-121.936;2023-03-29T14:26:13;16.55;;;4.85;;
22332;SDS011;11334;36.986;-121.936;2023-03-29T14:28:48;12.85;;;3.80;;
22332;SDS011;11334;36.986;-121.936;2023-03-29T14:31:20;12.43;;;4.03;;
22332;SDS011;11334;36.986;-121.936;2023-03-29T14:33:54;15.20;;;4.50;;
22332;SDS011;11334;36.986;-121.936;2023-03-29T14:36:22;13.70;;;3.30;;
22332;SDS011;11334;36.986;-121.936;2023-03-29T14:38:52;12.05;;;3.38;;
22332;SDS011;11334;36.986;-121.936;2023-03-29T14:41:27;15.02;;;4.07;;
22332;SDS011;11334;36.986;-121.936;2023-03-29T14:43:55;12.55;;;3.30;;
22332;SDS011;11334;36.986;-121.936;2023-03-29T14:46:22;15.68;;;2.88;;
22332;SDS011;11334;36.986;-121.936;2023-03-29T14:48:50;10.65;;;3.42;;
22332;SDS011;11334;36.986;-121.936;2023-03-29T14:51:17;11.07;;;2.83;;
22332;SDS011;11334;36.986;-121.936;2023-03-29T14:53:44;10.43;;;3.17;;
22332;SDS011;11334;36.986;-121.936;2023-03-29T14:56:12;14.48;;;3.25;;
22332;SDS011;11334;36.986;-121.936;2023-03-29T14:58:45;14.80;;;3.28;;
22332;SDS011;11334;36.986;-121.936;2023-03-29T15:01:16;22.70;;;3.50;;
22332;SDS011;11334;36.986;-121.936;2023-03-29T15:03:54;19.63;;;3.58;;
22332;SDS011;11334;36.986;-121.936;2023-03-29T15:06:26;12.77;;;3.70;;
22332;SDS011;11334;36.986;-121.936;2023-03-29T15:08:54;18.58;;;3.38;;
22332;SDS011;11334;36.986;-121.936;2023-03-29T15:11:25;9.25;;;3.50;;
22332;SDS011;11334;36.986;-121.936;2023-03-29T15:13:57;14.05;;;3.33;;
22332;SDS011;11334;36.986;-121.936;2023-03-29T15:16:29;16.08;;;4.97;;
22332;SDS011;11334;36.986;-121.936;2023-03-29T15:18:56;20.67;;;5.43;;
22332;SDS011;11334;36.986;-121.936;2023-03-29T15:21:27;23.65;;;5.70;;
22332;SDS011;11334;36.986;-121.936;2023-03-29T15:23:58;19.67;;;6.00;;
22332;SDS011;11334;36.986;-121.936;2023-03-29T15:29:12;32.05;;;7.53;;
22332;SDS011;11334;36.986;-121.936;2023-03-29T15:31:56;27.50;;;6.85;;
22332;SDS011;11334;36.986;-121.936;2023-03-29T15:34:24;13.82;;;4.65;;
22332;SDS011;11334;36.986;-121.936;2023-03-29T15:36:52;14.93;;;3.85;;
22332;SDS011;11334;36.986;-121.936;2023-03-29T15:39:19;13.38;;;3.95;;
22332;SDS011;11334;36.986;-121.936;2023-03-29T15:41:46;10.80;;;2.58;;
22332;SDS011;11334;36.986;-121.936;2023-03-29T15:44:16;14.18;;;3.42;;
22332;SDS011;11334;36.986;-121.936;2023-03-29T15:46:46;8.82;;;2.88;;
22332;SDS011;11334;36.986;-121.936;2023-03-29T15:49:13;7.50;;;2.60;;
22332;SDS011;11334;36.986;-121.936;2023-03-29T15:51:39;7.85;;;2.60;;
22332;SDS011;11334;36.986;-121.936;2023-03-29T15:54:06;6.55;;;2.67;;
22332;SDS011;11334;36.986;-121.936;2023-03-29T15:56:33;11.48;;;2.83;;
22332;SDS011;11334;36.986;-121.936;2023-03-29T15:59:07;10.25;;;2.35;;
22332;SDS011;11334;36.986;-121.936;2023-03-29T16:01:36;7.60;;;2.65;;
22332;SDS011;11334;36.986;-121.936;2023-03-29T16:04:03;7.53;;;2.08;;
22332;SDS011;11334;36.986;-121.936;2023-03-29T16:06:32;5.70;;;2.08;;
22332;SDS011;11334;36.986;-121.936;2023-03-29T16:08:59;7.40;;;2.30;;
22332;SDS011;11334;36.986;-121.936;2023-03-29T16:11:25;13.18;;;2.72;;
22332;SDS011;11334;36.986;-121.936;2023-03-29T16:13:52;8.63;;;2.30;;
22332;SDS011;11334;36.986;-121.936;2023-03-29T16:16:19;6.60;;;2.50;;
22332;SDS011;11334;36.986;-121.936;2023-03-29T16:18:46;5.93;;;2.13;;
22332;SDS011;11334;36.986;-121.936;2023-03-29T16:21:13;12.57;;;3.10;;
22332;SDS011;11334;36.986;-121.936;2023-03-29T16:23:42;15.93;;;4.13;;
22332;SDS011;11334;36.986;-121.936;2023-03-29T16:26:12;10.20;;;2.78;;
22332;SDS011;11334;36.986;-121.936;2023-03-29T16:28:40;8.50;;;2.78;;
22332;SDS011;11334;36.986;-121.936;2023-03-29T16:31:10;13.95;;;3.47;;
22332;SDS011;11334;36.986;-121.936;2023-03-29T16:33:38;16.88;;;4.05;;
22332;SDS011;11334;36.986;-121.936;2023-03-29T16:36:06;16.38;;;4.20;;
22332;SDS011;11334;36.986;-121.936;2023-03-29T16:38:32;13.93;;;3.65;;